sensor_id;sensor_type;location;lat;lon;timestamp;pressure;altitude;pressure_sealevel;temperature;humidity
24962;BME280;12992;50.884;13.668;2023-07-08T00:00:42;97677.00;;;14.81;88.53
24962;BME280;12992;50.884;13.668;2023-07-08T00:03:08;97670.41;;;14.82;89.76
24962;BME280;12992;50.884;13.668;2023-07-08T00:05:33;97674.81;;;14.78;89.40
24962;BME280;12992;50.884;13.668;2023-07-08T00:07:59;97683.84;;;14.84;90.12
24962;BME280;12992;50.884;13.668;2023-07-08T00:10:26;97693.75;;;14.85;90.16
24962;BME280;12992;50.884;13.668;2023-07-08T00:12:53;97672.63;;;14.70;89.39
24962;BME280;12992;50.884;13.668;2023-07-08T00:15:30;97689.63;;;14.72;90.84
24962;BME280;12992;50.884;13.668;2023-07-08T00:18:00;97693.16;;;14.72;90.48
24962;BME280;12992;50.884;13.668;2023-07-08T00:22:57;97689.88;;;14.65;88.47
24962;BME280;12992;50.884;13.668;2023-07-08T00:25:25;97701.13;;;14.69;88.32
24962;BME280;12992;50.884;13.668;2023-07-08T00:27:51;97694.81;;;14.53;90.46
24962;BME280;12992;50.884;13.668;2023-07-08T00:30:22;97703.88;;;14.59;91.00
24962;BME280;12992;50.884;13.668;2023-07-08T00:32:48;97714.81;;;14.64;90.26
24962;BME280;12992;50.884;13.668;2023-07-08T00:35:39;97723.88;;;14.64;89.29
24962;BME280;12992;50.884;13.668;2023-07-08T00:38:24;97708.78;;;14.52;89.15
24962;BME280;12992;50.884;13.668;2023-07-08T00:40:58;97714.84;;;14.59;87.16
24962;BME280;12992;50.884;13.668;2023-07-08T00:43:35;97726.88;;;14.63;88.85
24962;BME280;12992;50.884;13.668;2023-07-08T00:48:56;97720.84;;;14.61;87.76
24962;BME280;12992;50.884;13.668;2023-07-08T00:51:23;97724.97;;;14.68;89.87
24962;BME280;12992;50.884;13.668;2023-07-08T00:53:49;97722.47;;;14.57;91.17
24962;BME280;12992;50.884;13.668;2023-07-08T00:58:59;97705.13;;;14.31;91.00
24962;BME280;12992;50.884;13.668;2023-07-08T01:01:27;97692.22;;;14.21;89.63
24962;BME280;12992;50.884;13.668;2023-07-08T01:03:58;97688.94;;;14.19;88.45
24962;BME280;12992;50.884;13.668;2023-07-08T01:06:28;97694.66;;;14.12;87.98
24962;BME280;12992;50.884;13.668;2023-07-08T01:08:59;97710.63;;;14.26;87.35
24962;BME280;12992;50.884;13.668;2023-07-08T01:11:27;97702.09;;;14.17;90.35
24962;BME280;12992;50.884;13.668;2023-07-08T01:13:53;97696.88;;;14.10;91.03
24962;BME280;12992;50.884;13.668;2023-07-08T01:16:18;97693.00;;;14.01;92.05
24962;BME280;12992;50.884;13.668;2023-07-08T01:18:44;97698.19;;;13.98;91.54
24962;BME280;12992;50.884;13.668;2023-07-08T01:24:18;97700.66;;;13.99;92.74
24962;BME280;12992;50.884;13.668;2023-07-08T01:26:44;97703.69;;;14.03;90.80
24962;BME280;12992;50.884;13.668;2023-07-08T01:29:11;97701.75;;;14.03;89.27
24962;BME280;12992;50.884;13.668;2023-07-08T01:31:37;97694.13;;;14.05;90.42
24962;BME280;12992;50.884;13.668;2023-07-08T01:34:03;97685.31;;;13.88;92.28
24962;BME280;12992;50.884;13.668;2023-07-08T01:36:32;97688.28;;;13.86;93.41
24962;BME280;12992;50.884;13.668;2023-07-08T01:38:59;97692.38;;;13.84;93.31
24962;BME280;12992;50.884;13.668;2023-07-08T01:41:24;97704.19;;;13.95;95.80
24962;BME280;12992;50.884;13.668;2023-07-08T01:43:50;97675.66;;;13.75;93.26
24962;BME280;12992;50.884;13.668;2023-07-08T01:46:19;97671.81;;;13.71;93.29
24962;BME280;12992;50.884;13.668;2023-07-08T01:48:52;97681.63;;;13.67;94.04
24962;BME280;12992;50.884;13.668;2023-07-08T01:51:20;97673.94;;;13.59;94.08
24962;BME280;12992;50.884;13.668;2023-07-08T01:53:46;97677.25;;;13.61;94.38
24962;BME280;12992;50.884;13.668;2023-07-08T01:56:12;97678.84;;;13.57;94.03
24962;BME280;12992;50.884;13.668;2023-07-08T01:58:38;97676.66;;;13.59;94.46
24962;BME280;12992;50.884;13.668;2023-07-08T02:01:04;97678.06;;;13.62;94.27
24962;BME280;12992;50.884;13.668;2023-07-08T02:03:30;97674.47;;;13.56;93.54
24962;BME280;12992;50.884;13.668;2023-07-08T02:05:55;97690.38;;;13.64;94.89
24962;BME280;12992;50.884;13.668;2023-07-08T02:08:21;97688.47;;;13.65;95.27
24962;BME280;12992;50.884;13.668;2023-07-08T02:10:50;97688.78;;;13.73;94.09
24962;BME280;12992;50.884;13.668;2023-07-08T02:13:15;97700.28;;;13.75;94.48
24962;BME280;12992;50.884;13.668;2023-07-08T02:15:41;97699.19;;;13.76;95.46
24962;BME280;12992;50.884;13.668;2023-07-08T02:18:06;97699.78;;;13.78;95.47
24962;BME280;12992;50.884;13.668;2023-07-08T02:20:31;97691.56;;;13.83;93.99
24962;BME280;12992;50.884;13.668;2023-07-08T02:22:57;97692.16;;;13.91;93.72
24962;BME280;12992;50.884;13.668;2023-07-08T02:25:23;97694.09;;;14.00;91.11
24962;BME280;12992;50.884;13.668;2023-07-08T02:27:48;97696.03;;;14.10;90.55
24962;BME280;12992;50.884;13.668;2023-07-08T02:30:14;97691.41;;;14.15;90.17
24962;BME280;12992;50.884;13.668;2023-07-08T02:35:17;97698.84;;;14.35;88.44
24962;BME280;12992;50.884;13.668;2023-07-08T02:37:43;97713.16;;;14.48;88.92
24962;BME280;12992;50.884;13.668;2023-07-08T02:40:09;97704.94;;;14.48;89.69
24962;BME280;12992;50.884;13.668;2023-07-08T02:42:34;97694.78;;;14.48;89.47
24962;BME280;12992;50.884;13.668;2023-07-08T02:45:00;97693.66;;;14.44;89.52
24962;BME280;12992;50.884;13.668;2023-07-08T02:47:25;97701.94;;;14.49;89.43
24962;BME280;12992;50.884;13.668;2023-07-08T02:49:50;97693.97;;;14.48;89.59
24962;BME280;12992;50.884;13.668;2023-07-08T02:52:17;97695.59;;;14.43;89.71
24962;BME280;12992;50.884;13.668;2023-07-08T02:54:42;97701.88;;;14.44;89.14
24962;BME280;12992;50.884;13.668;2023-07-08T02:57:07;97705.19;;;14.41;91.91
24962;BME280;12992;50.884;13.668;2023-07-08T02:59:33;97698.59;;;14.32;92.65
24962;BME280;12992;50.884;13.668;2023-07-08T03:01:59;97703.25;;;14.31;92.97
24962;BME280;12992;50.884;13.668;2023-07-08T03:04:24;97689.53;;;14.26;92.69
24962;BME280;12992;50.884;13.668;2023-07-08T03:06:51;97695.00;;;14.26;92.06
24962;BME280;12992;50.884;13.668;2023-07-08T03:09:16;97698.28;;;14.23;92.60
24962;BME280;12992;50.884;13.668;2023-07-08T03:11:43;97704.84;;;14.22;93.55
24962;BME280;12992;50.884;13.668;2023-07-08T03:14:08;97698.81;;;14.20;93.35
24962;BME280;12992;50.884;13.668;2023-07-08T03:16:33;97708.16;;;14.24;93.53
24962;BME280;12992;50.884;13.668;2023-07-08T03:18:59;97702.09;;;14.17;94.43
24962;BME280;12992;50.884;13.668;2023-07-08T03:21:24;97713.91;;;14.23;96.04
24962;BME280;12992;50.884;13.668;2023-07-08T03:23:50;97696.34;;;14.18;95.84
24962;BME280;12992;50.884;13.668;2023-07-08T03:26:19;97696.03;;;14.10;96.36
24962;BME280;12992;50.884;13.668;2023-07-08T03:28:46;97710.59;;;14.15;96.67
24962;BME280;12992;50.884;13.668;2023-07-08T03:31:13;97711.38;;;14.11;97.15
24962;BME280;12992;50.884;13.668;2023-07-08T03:33:38;97715.75;;;14.07;97.69
24962;BME280;12992;50.884;13.668;2023-07-08T03:36:07;97710.81;;;14.04;97.90
24962;BME280;12992;50.884;13.668;2023-07-08T03:38:35;97713.00;;;13.97;99.53
24962;BME280;12992;50.884;13.668;2023-07-08T03:41:01;97717.66;;;14.01;99.55
24962;BME280;12992;50.884;13.668;2023-07-08T03:43:26;97711.63;;;13.99;100.00
24962;BME280;12992;50.884;13.668;2023-07-08T03:45:52;97714.63;;;13.98;100.00
24962;BME280;12992;50.884;13.668;2023-07-08T03:48:17;97720.69;;;14.05;100.00
24962;BME280;12992;50.884;13.668;2023-07-08T03:50:43;97727.81;;;14.06;100.00
24962;BME280;12992;50.884;13.668;2023-07-08T03:53:09;97714.91;;;14.01;100.00
24962;BME280;12992;50.884;13.668;2023-07-08T03:55:34;97729.47;;;14.07;100.00
24962;BME280;12992;50.884;13.668;2023-07-08T03:58:02;97727.25;;;14.09;100.00
24962;BME280;12992;50.884;13.668;2023-07-08T04:00:30;97730.03;;;14.14;100.00
24962;BME280;12992;50.884;13.668;2023-07-08T04:02:58;97740.44;;;14.17;100.00
24962;BME280;12992;50.884;13.668;2023-07-08T04:05:23;97738.28;;;14.29;100.00
24962;BME280;12992;50.884;13.668;2023-07-08T04:07:49;97725.97;;;14.32;100.00
24962;BME280;12992;50.884;13.668;2023-07-08T04:10:15;97732.84;;;14.34;100.00
24962;BME280;12992;50.884;13.668;2023-07-08T04:12:42;97738.06;;;14.41;100.00
24962;BME280;12992;50.884;13.668;2023-07-08T04:15:08;97740.00;;;14.45;100.00
24962;BME280;12992;50.884;13.668;2023-07-08T04:17:37;97747.69;;;14.54;100.00
24962;BME280;12992;50.884;13.668;2023-07-08T04:20:07;97747.72;;;14.64;100.00
24962;BME280;12992;50.884;13.668;2023-07-08T04:22:36;97752.38;;;14.73;100.00
24962;BME280;12992;50.884;13.668;2023-07-08T04:25:01;97748.56;;;14.80;100.00
24962;BME280;12992;50.884;13.668;2023-07-08T04:27:31;97745.00;;;14.89;100.00
24962;BME280;12992;50.884;13.668;2023-07-08T04:29:56;97747.75;;;14.99;100.00
24962;BME280;12992;50.884;13.668;2023-07-08T04:32:22;97744.19;;;15.09;100.00
24962;BME280;12992;50.884;13.668;2023-07-08T04:34:51;97745.28;;;15.18;100.00
24962;BME280;12992;50.884;13.668;2023-07-08T04:37:16;97742.81;;;15.27;100.00
24962;BME280;12992;50.884;13.668;2023-07-08T04:39:42;97741.72;;;15.38;100.00
24962;BME280;12992;50.884;13.668;2023-07-08T04:42:08;97742.81;;;15.47;100.00
24962;BME280;12992;50.884;13.668;2023-07-08T04:44:33;97741.69;;;15.58;100.00
24962;BME280;12992;50.884;13.668;2023-07-08T04:47:00;97743.59;;;15.68;100.00
24962;BME280;12992;50.884;13.668;2023-07-08T04:49:25;97746.59;;;15.77;100.00
24962;BME280;12992;50.884;13.668;2023-07-08T04:51:58;97739.44;;;15.86;100.00
24962;BME280;12992;50.884;13.668;2023-07-08T04:54:24;97753.41;;;15.95;100.00
24962;BME280;12992;50.884;13.668;2023-07-08T04:56:50;97751.75;;;16.04;100.00
24962;BME280;12992;50.884;13.668;2023-07-08T04:59:21;97751.16;;;16.17;100.00
24962;BME280;12992;50.884;13.668;2023-07-08T05:01:46;97756.84;;;16.31;100.00
24962;BME280;12992;50.884;13.668;2023-07-08T05:04:13;97757.88;;;16.45;100.00
24962;BME280;12992;50.884;13.668;2023-07-08T05:06:39;97752.03;;;16.57;100.00
24962;BME280;12992;50.884;13.668;2023-07-08T05:09:05;97753.34;;;16.69;100.00
24962;BME280;12992;50.884;13.668;2023-07-08T05:11:31;97756.59;;;16.82;100.00
24962;BME280;12992;50.884;13.668;2023-07-08T05:13:57;97758.97;;;16.93;100.00
24962;BME280;12992;50.884;13.668;2023-07-08T05:16:23;97764.66;;;17.07;100.00
24962;BME280;12992;50.884;13.668;2023-07-08T05:18:48;97769.78;;;17.19;100.00
24962;BME280;12992;50.884;13.668;2023-07-08T05:21:14;97771.09;;;17.32;100.00
24962;BME280;12992;50.884;13.668;2023-07-08T05:23:40;97763.78;;;17.46;100.00
24962;BME280;12992;50.884;13.668;2023-07-08T05:26:05;97766.41;;;17.61;100.00
24962;BME280;12992;50.884;13.668;2023-07-08T05:28:33;97761.88;;;17.75;100.00
24962;BME280;12992;50.884;13.668;2023-07-08T05:30:58;97763.94;;;17.89;100.00
24962;BME280;12992;50.884;13.668;2023-07-08T05:33:25;97772.88;;;18.04;97.88
24962;BME280;12992;50.884;13.668;2023-07-08T05:35:51;97768.28;;;18.19;98.88
24962;BME280;12992;50.884;13.668;2023-07-08T05:38:17;97765.63;;;18.32;98.02
24962;BME280;12992;50.884;13.668;2023-07-08T05:40:42;97772.09;;;18.47;97.45
24962;BME280;12992;50.884;13.668;2023-07-08T05:43:07;97763.06;;;18.60;95.93
24962;BME280;12992;50.884;13.668;2023-07-08T05:45:33;97761.25;;;18.74;94.24
24962;BME280;12992;50.884;13.668;2023-07-08T05:48:00;97763.25;;;18.87;94.91
24962;BME280;12992;50.884;13.668;2023-07-08T05:50:26;97765.78;;;19.03;94.01
24962;BME280;12992;50.884;13.668;2023-07-08T05:52:51;97759.41;;;19.21;94.07
24962;BME280;12992;50.884;13.668;2023-07-08T05:55:16;97757.75;;;19.39;95.45
24962;BME280;12992;50.884;13.668;2023-07-08T05:57:42;97752.28;;;19.52;93.52
24962;BME280;12992;50.884;13.668;2023-07-08T06:00:08;97753.94;;;19.67;93.92
24962;BME280;12992;50.884;13.668;2023-07-08T06:02:40;97743.75;;;19.82;89.65
24962;BME280;12992;50.884;13.668;2023-07-08T06:05:06;97752.78;;;20.01;91.51
24962;BME280;12992;50.884;13.668;2023-07-08T06:07:31;97739.06;;;20.23;87.22
24962;BME280;12992;50.884;13.668;2023-07-08T06:09:57;97739.06;;;20.51;81.90
24962;BME280;12992;50.884;13.668;2023-07-08T06:12:23;97738.41;;;20.68;82.82
24962;BME280;12992;50.884;13.668;2023-07-08T06:14:49;97738.63;;;20.93;76.79
24962;BME280;12992;50.884;13.668;2023-07-08T06:17:16;97741.47;;;21.38;71.39
24962;BME280;12992;50.884;13.668;2023-07-08T06:19:42;97740.81;;;21.72;71.61
24962;BME280;12992;50.884;13.668;2023-07-08T06:22:07;97740.66;;;22.00;70.58
24962;BME280;12992;50.884;13.668;2023-07-08T06:24:32;97732.75;;;22.24;69.09
24962;BME280;12992;50.884;13.668;2023-07-08T06:26:58;97735.63;;;22.59;67.63
24962;BME280;12992;50.884;13.668;2023-07-08T06:29:23;97729.63;;;22.83;65.16
24962;BME280;12992;50.884;13.668;2023-07-08T06:31:49;97732.44;;;23.09;63.28
24962;BME280;12992;50.884;13.668;2023-07-08T06:34:14;97718.06;;;23.24;63.33
24962;BME280;12992;50.884;13.668;2023-07-08T06:36:39;97712.94;;;23.52;61.55
24962;BME280;12992;50.884;13.668;2023-07-08T06:39:05;97718.25;;;23.83;59.60
24962;BME280;12992;50.884;13.668;2023-07-08T06:41:34;97708.84;;;24.05;60.93
24962;BME280;12992;50.884;13.668;2023-07-08T06:43:59;97707.75;;;24.27;59.11
24962;BME280;12992;50.884;13.668;2023-07-08T06:46:27;97711.97;;;24.42;60.67
24962;BME280;12992;50.884;13.668;2023-07-08T06:48:52;97689.75;;;24.54;58.04
24962;BME280;12992;50.884;13.668;2023-07-08T06:51:18;97703.50;;;24.80;56.71
24962;BME280;12992;50.884;13.668;2023-07-08T06:53:44;97699.31;;;25.16;55.45
24962;BME280;12992;50.884;13.668;2023-07-08T06:56:09;97702.72;;;25.21;56.30
24962;BME280;12992;50.884;13.668;2023-07-08T06:58:34;97686.47;;;25.35;55.79
24962;BME280;12992;50.884;13.668;2023-07-08T07:01:00;97692.66;;;25.41;56.08
24962;BME280;12992;50.884;13.668;2023-07-08T07:03:26;97684.66;;;25.39;56.31
24962;BME280;12992;50.884;13.668;2023-07-08T07:05:52;97693.19;;;25.55;55.30
24962;BME280;12992;50.884;13.668;2023-07-08T07:08:17;97698.31;;;25.65;56.87
24962;BME280;12992;50.884;13.668;2023-07-08T07:10:42;97695.81;;;25.85;56.65
24962;BME280;12992;50.884;13.668;2023-07-08T07:13:08;97691.50;;;25.87;56.96
24962;BME280;12992;50.884;13.668;2023-07-08T07:15:33;97697.94;;;26.00;55.14
24962;BME280;12992;50.884;13.668;2023-07-08T07:17:58;97691.91;;;25.98;56.65
24962;BME280;12992;50.884;13.668;2023-07-08T07:20:25;97678.84;;;26.02;56.38
24962;BME280;12992;50.884;13.668;2023-07-08T07:22:50;97702.84;;;26.40;53.65
24962;BME280;12992;50.884;13.668;2023-07-08T07:25:16;97699.13;;;26.60;52.92
24962;BME280;12992;50.884;13.668;2023-07-08T07:27:42;97700.25;;;26.71;54.18
24962;BME280;12992;50.884;13.668;2023-07-08T07:30:07;97700.66;;;26.98;53.75
24962;BME280;12992;50.884;13.668;2023-07-08T07:32:33;97696.47;;;26.92;54.74
24962;BME280;12992;50.884;13.668;2023-07-08T07:34:59;97681.09;;;26.98;53.20
24962;BME280;12992;50.884;13.668;2023-07-08T07:37:25;97681.34;;;27.05;51.95
24962;BME280;12992;50.884;13.668;2023-07-08T07:39:50;97693.00;;;26.95;55.82
24962;BME280;12992;50.884;13.668;2023-07-08T07:42:18;97692.91;;;27.19;51.00
24962;BME280;12992;50.884;13.668;2023-07-08T07:44:44;97698.81;;;27.58;50.63
24962;BME280;12992;50.884;13.668;2023-07-08T07:47:10;97692.75;;;27.84;51.23
24962;BME280;12992;50.884;13.668;2023-07-08T07:49:36;97690.09;;;28.22;48.57
24962;BME280;12992;50.884;13.668;2023-07-08T07:52:02;97672.56;;;28.26;48.57
24962;BME280;12992;50.884;13.668;2023-07-08T07:54:28;97711.97;;;28.84;51.97
24962;BME280;12992;50.884;13.668;2023-07-08T07:56:53;97708.44;;;29.60;50.58
24962;BME280;12992;50.884;13.668;2023-07-08T07:59:18;97684.81;;;29.84;49.78
24962;BME280;12992;50.884;13.668;2023-07-08T08:01:44;97682.25;;;29.76;48.04
24962;BME280;12992;50.884;13.668;2023-07-08T08:04:10;97676.50;;;29.92;46.04
24962;BME280;12992;50.884;13.668;2023-07-08T08:06:36;97653.09;;;29.84;45.33
24962;BME280;12992;50.884;13.668;2023-07-08T08:09:03;97683.50;;;30.01;49.20
24962;BME280;12992;50.884;13.668;2023-07-08T08:11:28;97657.78;;;29.99;46.49
24962;BME280;12992;50.884;13.668;2023-07-08T08:13:53;97668.59;;;30.20;46.72
24962;BME280;12992;50.884;13.668;2023-07-08T08:16:20;97669.94;;;30.30;49.14
24962;BME280;12992;50.884;13.668;2023-07-08T08:18:46;97660.97;;;30.47;44.79
24962;BME280;12992;50.884;13.668;2023-07-08T08:21:11;97681.16;;;30.79;43.00
24962;BME280;12992;50.884;13.668;2023-07-08T08:23:36;97684.50;;;31.18;42.44
24962;BME280;12992;50.884;13.668;2023-07-08T08:26:02;97705.03;;;32.27;39.52
24962;BME280;12992;50.884;13.668;2023-07-08T08:28:27;97688.75;;;33.19;41.18
24962;BME280;12992;50.884;13.668;2023-07-08T08:30:52;97712.09;;;34.60;36.60
24962;BME280;12992;50.884;13.668;2023-07-08T08:35:46;97728.03;;;36.29;35.15
24962;BME280;12992;50.884;13.668;2023-07-08T08:38:12;97731.72;;;37.20;33.26
24962;BME280;12992;50.884;13.668;2023-07-08T08:40:40;97710.03;;;37.36;34.29
24962;BME280;12992;50.884;13.668;2023-07-08T08:43:10;97718.38;;;37.51;35.92
24962;BME280;12992;50.884;13.668;2023-07-08T08:45:49;97705.84;;;37.48;37.83
24962;BME280;12992;50.884;13.668;2023-07-08T08:48:18;97730.53;;;37.85;38.66
24962;BME280;12992;50.884;13.668;2023-07-08T08:51:00;97733.91;;;38.58;35.31
24962;BME280;12992;50.884;13.668;2023-07-08T08:53:27;97736.25;;;39.73;35.05
24962;BME280;12992;50.884;13.668;2023-07-08T08:56:03;97717.09;;;39.73;36.19
24962;BME280;12992;50.884;13.668;2023-07-08T08:58:43;97698.41;;;39.88;36.06
24962;BME280;12992;50.884;13.668;2023-07-08T09:01:12;97659.81;;;39.84;32.36
24962;BME280;12992;50.884;13.668;2023-07-08T09:06:10;97608.44;;;38.92;32.09
24962;BME280;12992;50.884;13.668;2023-07-08T09:08:36;97583.75;;;37.68;33.30
24962;BME280;12992;50.884;13.668;2023-07-08T09:11:15;97566.31;;;36.74;37.22
24962;BME280;12992;50.884;13.668;2023-07-08T09:13:43;97553.25;;;36.05;35.39
24962;BME280;12992;50.884;13.668;2023-07-08T09:16:44;97576.03;;;36.73;34.68
24962;BME280;12992;50.884;13.668;2023-07-08T09:19:14;97613.75;;;38.23;36.62
24962;BME280;12992;50.884;13.668;2023-07-08T09:24:27;97548.69;;;37.51;34.24
24962;BME280;12992;50.884;13.668;2023-07-08T09:26:54;97567.50;;;37.68;38.84
24962;BME280;12992;50.884;13.668;2023-07-08T09:29:22;97550.50;;;37.65;34.25
24962;BME280;12992;50.884;13.668;2023-07-08T09:31:48;97554.69;;;37.57;37.77
24962;BME280;12992;50.884;13.668;2023-07-08T09:34:16;97528.56;;;36.77;37.95
24962;BME280;12992;50.884;13.668;2023-07-08T09:36:46;97528.31;;;35.82;37.72
24962;BME280;12992;50.884;13.668;2023-07-08T09:39:14;97550.00;;;36.03;38.98
24962;BME280;12992;50.884;13.668;2023-07-08T09:41:42;97557.16;;;37.24;36.33
24962;BME280;12992;50.884;13.668;2023-07-08T09:44:18;97533.41;;;37.41;33.78
24962;BME280;12992;50.884;13.668;2023-07-08T09:46:44;97500.75;;;36.65;33.88
24962;BME280;12992;50.884;13.668;2023-07-08T09:49:36;97509.59;;;35.95;34.35
24962;BME280;12992;50.884;13.668;2023-07-08T09:52:04;97524.91;;;36.05;35.11
24962;BME280;12992;50.884;13.668;2023-07-08T09:54:29;97554.41;;;36.52;36.91
24962;BME280;12992;50.884;13.668;2023-07-08T09:56:59;97536.22;;;36.80;37.84
24962;BME280;12992;50.884;13.668;2023-07-08T09:59:30;97503.97;;;35.40;38.83
24962;BME280;12992;50.884;13.668;2023-07-08T10:01:59;97537.00;;;34.84;38.67
24962;BME280;12992;50.884;13.668;2023-07-08T10:04:25;97559.84;;;35.29;40.30
24962;BME280;12992;50.884;13.668;2023-07-08T10:06:50;97565.88;;;35.97;40.32
24962;BME280;12992;50.884;13.668;2023-07-08T10:09:20;97526.72;;;35.78;37.32
24962;BME280;12992;50.884;13.668;2023-07-08T10:11:50;97528.38;;;35.79;34.00
24962;BME280;12992;50.884;13.668;2023-07-08T10:14:26;97510.38;;;34.74;35.71
24962;BME280;12992;50.884;13.668;2023-07-08T10:16:53;97557.41;;;35.86;34.09
24962;BME280;12992;50.884;13.668;2023-07-08T10:19:19;97545.75;;;35.81;35.98
24962;BME280;12992;50.884;13.668;2023-07-08T10:25:02;97546.25;;;36.13;36.13
24962;BME280;12992;50.884;13.668;2023-07-08T10:27:57;97538.63;;;36.82;32.78
24962;BME280;12992;50.884;13.668;2023-07-08T10:30:31;97518.22;;;35.81;37.60
24962;BME280;12992;50.884;13.668;2023-07-08T10:33:28;97544.41;;;36.41;35.43
24962;BME280;12992;50.884;13.668;2023-07-08T10:41:36;97547.66;;;36.73;38.10
24962;BME280;12992;50.884;13.668;2023-07-08T10:47:13;97535.50;;;37.64;34.10
24962;BME280;12992;50.884;13.668;2023-07-08T10:49:50;97503.94;;;37.28;33.12
24962;BME280;12992;50.884;13.668;2023-07-08T10:52:35;97530.00;;;36.93;34.23
24962;BME280;12992;50.884;13.668;2023-07-08T10:55:20;97518.09;;;36.40;37.68
24962;BME280;12992;50.884;13.668;2023-07-08T11:00:56;97520.53;;;35.41;35.16
24962;BME280;12992;50.884;13.668;2023-07-08T11:06:08;97512.81;;;34.76;35.83
24962;BME280;12992;50.884;13.668;2023-07-08T11:08:44;97521.25;;;34.83;34.14
24962;BME280;12992;50.884;13.668;2023-07-08T11:14:11;97558.66;;;35.26;39.88
24962;BME280;12992;50.884;13.668;2023-07-08T11:19:16;97557.28;;;36.83;36.21
24962;BME280;12992;50.884;13.668;2023-07-08T11:21:48;97553.25;;;38.42;34.00
24962;BME280;12992;50.884;13.668;2023-07-08T11:26:57;97537.38;;;39.77;31.65
24962;BME280;12992;50.884;13.668;2023-07-08T11:29:26;97526.69;;;40.42;32.64
24962;BME280;12992;50.884;13.668;2023-07-08T11:31:55;97514.09;;;39.95;30.90
24962;BME280;12992;50.884;13.668;2023-07-08T11:34:21;97525.09;;;40.12;32.22
24962;BME280;12992;50.884;13.668;2023-07-08T11:36:48;97492.88;;;39.10;31.81
24962;BME280;12992;50.884;13.668;2023-07-08T11:39:43;97523.75;;;40.01;32.52
24962;BME280;12992;50.884;13.668;2023-07-08T11:42:15;97506.81;;;39.93;31.05
24962;BME280;12992;50.884;13.668;2023-07-08T11:44:44;97537.91;;;40.20;34.12
24962;BME280;12992;50.884;13.668;2023-07-08T11:47:18;97534.63;;;40.51;32.61
24962;BME280;12992;50.884;13.668;2023-07-08T11:49:46;97531.44;;;41.33;31.47
24962;BME280;12992;50.884;13.668;2023-07-08T11:52:16;97529.19;;;41.53;33.75
24962;BME280;12992;50.884;13.668;2023-07-08T11:54:46;97528.66;;;42.18;32.91
24962;BME280;12992;50.884;13.668;2023-07-08T11:57:24;97541.38;;;42.52;33.79
24962;BME280;12992;50.884;13.668;2023-07-08T12:05:16;97507.03;;;42.17;32.51
24962;BME280;12992;50.884;13.668;2023-07-08T12:07:46;97515.78;;;42.35;33.52
24962;BME280;12992;50.884;13.668;2023-07-08T12:10:18;97489.94;;;39.83;32.56
24962;BME280;12992;50.884;13.668;2023-07-08T12:12:47;97525.34;;;39.85;35.50
24962;BME280;12992;50.884;13.668;2023-07-08T12:15:28;97498.91;;;39.16;34.62
24962;BME280;12992;50.884;13.668;2023-07-08T12:18:01;97494.69;;;38.85;34.19
24962;BME280;12992;50.884;13.668;2023-07-08T12:20:35;97502.38;;;39.40;34.31
24962;BME280;12992;50.884;13.668;2023-07-08T12:23:01;97509.22;;;40.11;33.77
24962;BME280;12992;50.884;13.668;2023-07-08T12:25:30;97505.97;;;39.93;32.38
24962;BME280;12992;50.884;13.668;2023-07-08T12:27:57;97501.34;;;39.83;32.39
24962;BME280;12992;50.884;13.668;2023-07-08T12:30:22;97499.84;;;40.56;32.23
24962;BME280;12992;50.884;13.668;2023-07-08T12:32:48;97520.19;;;40.71;33.20
24962;BME280;12992;50.884;13.668;2023-07-08T12:35:22;97520.44;;;41.18;33.39
24962;BME280;12992;50.884;13.668;2023-07-08T12:37:50;97493.53;;;40.90;32.46
24962;BME280;12992;50.884;13.668;2023-07-08T12:40:16;97490.19;;;40.79;32.84
24962;BME280;12992;50.884;13.668;2023-07-08T12:42:41;97474.25;;;39.91;32.96
24962;BME280;12992;50.884;13.668;2023-07-08T12:45:18;97502.91;;;40.49;32.90
24962;BME280;12992;50.884;13.668;2023-07-08T12:47:44;97510.72;;;41.16;34.90
24962;BME280;12992;50.884;13.668;2023-07-08T12:50:11;97495.97;;;41.04;33.73
24962;BME280;12992;50.884;13.668;2023-07-08T12:52:37;97479.09;;;40.81;32.13
24962;BME280;12992;50.884;13.668;2023-07-08T12:55:02;97450.25;;;40.50;31.92
24962;BME280;12992;50.884;13.668;2023-07-08T12:57:27;97478.28;;;38.09;34.01
24962;BME280;12992;50.884;13.668;2023-07-08T12:59:53;97506.28;;;39.30;35.28
24962;BME280;12992;50.884;13.668;2023-07-08T13:02:20;97506.88;;;39.90;35.00
24962;BME280;12992;50.884;13.668;2023-07-08T13:04:50;97498.66;;;39.92;34.23
24962;BME280;12992;50.884;13.668;2023-07-08T13:07:32;97440.41;;;38.36;33.42
24962;BME280;12992;50.884;13.668;2023-07-08T13:09:59;97469.28;;;38.34;32.75
24962;BME280;12992;50.884;13.668;2023-07-08T13:12:25;97459.19;;;37.39;34.23
24962;BME280;12992;50.884;13.668;2023-07-08T13:14:52;97440.75;;;36.67;33.29
24962;BME280;12992;50.884;13.668;2023-07-08T13:17:19;97428.94;;;35.62;33.42
24962;BME280;12992;50.884;13.668;2023-07-08T13:19:45;97429.50;;;34.84;34.44
24962;BME280;12992;50.884;13.668;2023-07-08T13:22:17;97440.31;;;34.05;37.68
24962;BME280;12992;50.884;13.668;2023-07-08T13:24:44;97430.31;;;33.43;37.22
24962;BME280;12992;50.884;13.668;2023-07-08T13:27:21;97443.00;;;32.48;39.96
24962;BME280;12992;50.884;13.668;2023-07-08T13:29:47;97434.84;;;32.25;39.66
24962;BME280;12992;50.884;13.668;2023-07-08T13:32:12;97418.94;;;31.85;37.79
24962;BME280;12992;50.884;13.668;2023-07-08T13:34:39;97437.25;;;31.57;39.47
24962;BME280;12992;50.884;13.668;2023-07-08T13:37:12;97430.22;;;31.30;39.57
24962;BME280;12992;50.884;13.668;2023-07-08T13:39:45;97430.13;;;31.23;38.49
24962;BME280;12992;50.884;13.668;2023-07-08T13:42:11;97422.44;;;30.76;38.72
24962;BME280;12992;50.884;13.668;2023-07-08T13:44:44;97441.63;;;31.07;36.04